sensor_id;sensor_type;location;lat;lon;timestamp;P1;durP1;ratioP1;P2;durP2;ratioP2
6017;SDS011;3037;51.068;13.780;2024-01-15T00:00:41;12.30;;;8.03;;
6017;SDS011;3037;51.068;13.780;2024-01-15T00:03:07;14.67;;;7.80;;
6017;SDS011;3037;51.068;13.780;2024-01-15T00:05:32;11.87;;;7.63;;
6017;SDS011;3037;51.068;13.780;2024-01-15T00:07:58;11.00;;;7.23;;
6017;SDS011;3037;51.068;13.780;2024-01-15T00:10:24;10.57;;;6.40;;
6017;SDS011;3037;51.068;13.780;2024-01-15T00:12:49;9.87;;;7.37;;
6017;SDS011;3037;51.068;13.780;2024-01-15T00:15:15;11.13;;;8.27;;
6017;SDS011;3037;51.068;13.780;2024-01-15T00:17:40;12.07;;;7.13;;
6017;SDS011;3037;51.068;13.780;2024-01-15T00:20:06;11.70;;;7.13;;
6017;SDS011;3037;51.068;13.780;2024-01-15T00:22:32;11.23;;;7.40;;
6017;SDS011;3037;51.068;13.780;2024-01-15T00:24:58;11.73;;;7.60;;
6017;SDS011;3037;51.068;13.780;2024-01-15T00:27:23;13.33;;;7.83;;
6017;SDS011;3037;51.068;13.780;2024-01-15T00:29:49;12.07;;;7.00;;
6017;SDS011;3037;51.068;13.780;2024-01-15T00:32:16;14.30;;;8.10;;
6017;SDS011;3037;51.068;13.780;2024-01-15T00:34:42;15.73;;;7.60;;
6017;SDS011;3037;51.068;13.780;2024-01-15T00:37:08;13.27;;;8.60;;
6017;SDS011;3037;51.068;13.780;2024-01-15T00:39:33;11.17;;;7.30;;
6017;SDS011;3037;51.068;13.780;2024-01-15T00:41:59;10.83;;;7.00;;
6017;SDS011;3037;51.068;13.780;2024-01-15T00:44:24;13.07;;;6.50;;
6017;SDS011;3037;51.068;13.780;2024-01-15T00:46:49;12.50;;;7.83;;
6017;SDS011;3037;51.068;13.780;2024-01-15T00:49:15;12.87;;;7.63;;
6017;SDS011;3037;51.068;13.780;2024-01-15T00:51:41;14.23;;;7.30;;
6017;SDS011;3037;51.068;13.780;2024-01-15T00:54:06;10.70;;;7.37;;
6017;SDS011;3037;51.068;13.780;2024-01-15T00:56:32;11.47;;;7.60;;
6017;SDS011;3037;51.068;13.780;2024-01-15T00:58:57;21.23;;;7.67;;
6017;SDS011;3037;51.068;13.780;2024-01-15T01:01:23;11.63;;;7.57;;
6017;SDS011;3037;51.068;13.780;2024-01-15T01:03:48;13.50;;;7.77;;
6017;SDS011;3037;51.068;13.780;2024-01-15T01:06:14;10.57;;;7.13;;
6017;SDS011;3037;51.068;13.780;2024-01-15T01:08:39;17.93;;;8.20;;
6017;SDS011;3037;51.068;13.780;2024-01-15T01:11:05;12.80;;;8.20;;
6017;SDS011;3037;51.068;13.780;2024-01-15T01:13:32;10.37;;;7.10;;
6017;SDS011;3037;51.068;13.780;2024-01-15T01:15:57;13.27;;;7.30;;
6017;SDS011;3037;51.068;13.780;2024-01-15T01:18:23;11.40;;;7.43;;
6017;SDS011;3037;51.068;13.780;2024-01-15T01:20:48;9.70;;;7.30;;
6017;SDS011;3037;51.068;13.780;2024-01-15T01:23:14;12.10;;;7.87;;
6017;SDS011;3037;51.068;13.780;2024-01-15T01:25:39;15.07;;;7.47;;
6017;SDS011;3037;51.068;13.780;2024-01-15T01:28:05;12.43;;;7.20;;
6017;SDS011;3037;51.068;13.780;2024-01-15T01:30:30;10.00;;;7.30;;
6017;SDS011;3037;51.068;13.780;2024-01-15T01:32:56;12.20;;;7.97;;
6017;SDS011;3037;51.068;13.780;2024-01-15T01:35:22;12.10;;;8.50;;
6017;SDS011;3037;51.068;13.780;2024-01-15T01:37:47;13.73;;;8.47;;
6017;SDS011;3037;51.068;13.780;2024-01-15T01:40:13;13.40;;;8.63;;
6017;SDS011;3037;51.068;13.780;2024-01-15T01:42:38;15.50;;;9.00;;
6017;SDS011;3037;51.068;13.780;2024-01-15T01:45:04;12.27;;;7.77;;
6017;SDS011;3037;51.068;13.780;2024-01-15T01:47:30;16.13;;;7.97;;
6017;SDS011;3037;51.068;13.780;2024-01-15T01:49:56;14.40;;;8.23;;
6017;SDS011;3037;51.068;13.780;2024-01-15T01:52:21;14.00;;;8.10;;
6017;SDS011;3037;51.068;13.780;2024-01-15T01:54:47;11.80;;;6.57;;
6017;SDS011;3037;51.068;13.780;2024-01-15T01:57:13;15.30;;;8.80;;
6017;SDS011;3037;51.068;13.780;2024-01-15T01:59:39;16.30;;;7.90;;
6017;SDS011;3037;51.068;13.780;2024-01-15T02:02:05;14.87;;;8.10;;
6017;SDS011;3037;51.068;13.780;2024-01-15T02:04:31;13.93;;;8.40;;
6017;SDS011;3037;51.068;13.780;2024-01-15T02:06:58;14.57;;;8.17;;
6017;SDS011;3037;51.068;13.780;2024-01-15T02:09:24;9.23;;;6.30;;
6017;SDS011;3037;51.068;13.780;2024-01-15T02:11:50;17.37;;;8.83;;
6017;SDS011;3037;51.068;13.780;2024-01-15T02:14:16;13.63;;;8.63;;
6017;SDS011;3037;51.068;13.780;2024-01-15T02:16:42;14.87;;;8.37;;
6017;SDS011;3037;51.068;13.780;2024-01-15T02:19:07;15.27;;;7.97;;
6017;SDS011;3037;51.068;13.780;2024-01-15T02:21:40;17.33;;;8.93;;
6017;SDS011;3037;51.068;13.780;2024-01-15T02:24:06;16.00;;;8.60;;
6017;SDS011;3037;51.068;13.780;2024-01-15T02:26:31;11.30;;;6.80;;
6017;SDS011;3037;51.068;13.780;2024-01-15T02:29:00;12.57;;;8.30;;
6017;SDS011;3037;51.068;13.780;2024-01-15T02:31:26;13.93;;;8.70;;
6017;SDS011;3037;51.068;13.780;2024-01-15T02:33:52;14.40;;;8.17;;
6017;SDS011;3037;51.068;13.780;2024-01-15T02:36:17;14.57;;;7.80;;
6017;SDS011;3037;51.068;13.780;2024-01-15T02:38:43;14.80;;;9.27;;
6017;SDS011;3037;51.068;13.780;2024-01-15T02:41:08;10.50;;;7.23;;
6017;SDS011;3037;51.068;13.780;2024-01-15T02:43:34;13.37;;;8.80;;
6017;SDS011;3037;51.068;13.780;2024-01-15T02:45:59;13.50;;;8.30;;
6017;SDS011;3037;51.068;13.780;2024-01-15T02:48:24;16.87;;;9.20;;
6017;SDS011;3037;51.068;13.780;2024-01-15T02:50:50;10.00;;;6.50;;
6017;SDS011;3037;51.068;13.780;2024-01-15T02:53:15;12.83;;;7.70;;
6017;SDS011;3037;51.068;13.780;2024-01-15T02:55:41;15.93;;;9.33;;
6017;SDS011;3037;51.068;13.780;2024-01-15T02:58:07;18.03;;;9.30;;
6017;SDS011;3037;51.068;13.780;2024-01-15T03:00:32;15.20;;;9.13;;
6017;SDS011;3037;51.068;13.780;2024-01-15T03:02:58;14.40;;;8.40;;
6017;SDS011;3037;51.068;13.780;2024-01-15T03:05:24;20.23;;;10.13;;
6017;SDS011;3037;51.068;13.780;2024-01-15T03:07:49;17.83;;;8.63;;
6017;SDS011;3037;51.068;13.780;2024-01-15T03:10:15;23.03;;;9.67;;
6017;SDS011;3037;51.068;13.780;2024-01-15T03:12:40;19.33;;;9.90;;
6017;SDS011;3037;51.068;13.780;2024-01-15T03:15:06;11.27;;;7.73;;
6017;SDS011;3037;51.068;13.780;2024-01-15T03:17:31;13.90;;;7.80;;
6017;SDS011;3037;51.068;13.780;2024-01-15T03:19:57;21.60;;;10.23;;
6017;SDS011;3037;51.068;13.780;2024-01-15T03:22:22;13.97;;;9.60;;
6017;SDS011;3037;51.068;13.780;2024-01-15T03:24:48;18.30;;;10.10;;
6017;SDS011;3037;51.068;13.780;2024-01-15T03:27:13;18.80;;;10.30;;
6017;SDS011;3037;51.068;13.780;2024-01-15T03:29:39;27.03;;;9.70;;
6017;SDS011;3037;51.068;13.780;2024-01-15T03:32:05;20.47;;;8.80;;
6017;SDS011;3037;51.068;13.780;2024-01-15T03:34:31;12.03;;;7.40;;
6017;SDS011;3037;51.068;13.780;2024-01-15T03:36:57;14.57;;;9.53;;
6017;SDS011;3037;51.068;13.780;2024-01-15T03:39:23;24.43;;;10.77;;
6017;SDS011;3037;51.068;13.780;2024-01-15T03:41:49;15.70;;;9.60;;
6017;SDS011;3037;51.068;13.780;2024-01-15T03:44:14;24.20;;;10.37;;
6017;SDS011;3037;51.068;13.780;2024-01-15T03:46:40;24.63;;;11.30;;
6017;SDS011;3037;51.068;13.780;2024-01-15T03:49:05;15.63;;;9.20;;
6017;SDS011;3037;51.068;13.780;2024-01-15T03:51:31;18.50;;;10.80;;
6017;SDS011;3037;51.068;13.780;2024-01-15T03:53:56;21.63;;;11.67;;
6017;SDS011;3037;51.068;13.780;2024-01-15T03:56:22;21.00;;;10.77;;
6017;SDS011;3037;51.068;13.780;2024-01-15T03:58:47;24.30;;;11.07;;
6017;SDS011;3037;51.068;13.780;2024-01-15T04:01:13;20.90;;;10.60;;
6017;SDS011;3037;51.068;13.780;2024-01-15T04:03:38;20.63;;;11.17;;
6017;SDS011;3037;51.068;13.780;2024-01-15T04:06:04;19.57;;;9.60;;
6017;SDS011;3037;51.068;13.780;2024-01-15T04:08:30;22.30;;;11.87;;
6017;SDS011;3037;51.068;13.780;2024-01-15T04:10:55;20.23;;;10.37;;
6017;SDS011;3037;51.068;13.780;2024-01-15T04:13:21;28.40;;;10.43;;
6017;SDS011;3037;51.068;13.780;2024-01-15T04:15:47;16.20;;;8.80;;
6017;SDS011;3037;51.068;13.780;2024-01-15T04:18:12;15.27;;;8.33;;
6017;SDS011;3037;51.068;13.780;2024-01-15T04:20:38;16.20;;;8.73;;
6017;SDS011;3037;51.068;13.780;2024-01-15T04:23:04;15.40;;;7.67;;
6017;SDS011;3037;51.068;13.780;2024-01-15T04:25:29;17.70;;;10.10;;
6017;SDS011;3037;51.068;13.780;2024-01-15T04:27:55;16.57;;;10.37;;
6017;SDS011;3037;51.068;13.780;2024-01-15T04:30:20;16.83;;;10.00;;
6017;SDS011;3037;51.068;13.780;2024-01-15T04:32:46;16.73;;;9.73;;
6017;SDS011;3037;51.068;13.780;2024-01-15T04:35:11;17.90;;;9.57;;
6017;SDS011;3037;51.068;13.780;2024-01-15T04:37:37;26.73;;;10.67;;
6017;SDS011;3037;51.068;13.780;2024-01-15T04:40:03;16.60;;;9.90;;
6017;SDS011;3037;51.068;13.780;2024-01-15T04:42:29;23.17;;;11.30;;
6017;SDS011;3037;51.068;13.780;2024-01-15T04:44:55;22.40;;;10.60;;
6017;SDS011;3037;51.068;13.780;2024-01-15T04:47:20;25.50;;;11.90;;
6017;SDS011;3037;51.068;13.780;2024-01-15T04:49:46;23.33;;;10.63;;
6017;SDS011;3037;51.068;13.780;2024-01-15T04:52:11;13.10;;;7.80;;
6017;SDS011;3037;51.068;13.780;2024-01-15T04:54:37;14.20;;;8.97;;
6017;SDS011;3037;51.068;13.780;2024-01-15T04:57:03;16.20;;;9.10;;
6017;SDS011;3037;51.068;13.780;2024-01-15T04:59:28;19.17;;;10.03;;
6017;SDS011;3037;51.068;13.780;2024-01-15T05:01:54;19.57;;;10.50;;
6017;SDS011;3037;51.068;13.780;2024-01-15T05:04:20;27.20;;;10.20;;
6017;SDS011;3037;51.068;13.780;2024-01-15T05:06:46;20.10;;;10.20;;
6017;SDS011;3037;51.068;13.780;2024-01-15T05:09:11;17.03;;;9.03;;
6017;SDS011;3037;51.068;13.780;2024-01-15T05:11:38;22.37;;;9.50;;
6017;SDS011;3037;51.068;13.780;2024-01-15T05:14:04;22.60;;;11.00;;
6017;SDS011;3037;51.068;13.780;2024-01-15T05:16:29;17.77;;;9.93;;
6017;SDS011;3037;51.068;13.780;2024-01-15T05:18:55;14.47;;;7.53;;
6017;SDS011;3037;51.068;13.780;2024-01-15T05:21:20;18.70;;;10.17;;
6017;SDS011;3037;51.068;13.780;2024-01-15T05:23:46;19.57;;;8.53;;
6017;SDS011;3037;51.068;13.780;2024-01-15T05:26:11;18.33;;;9.67;;
6017;SDS011;3037;51.068;13.780;2024-01-15T05:28:37;18.00;;;9.97;;
6017;SDS011;3037;51.068;13.780;2024-01-15T05:31:02;13.03;;;7.80;;
6017;SDS011;3037;51.068;13.780;2024-01-15T05:33:29;22.23;;;11.20;;
6017;SDS011;3037;51.068;13.780;2024-01-15T05:35:54;17.83;;;8.57;;
6017;SDS011;3037;51.068;13.780;2024-01-15T05:38:20;15.27;;;8.53;;
6017;SDS011;3037;51.068;13.780;2024-01-15T05:40:46;21.40;;;8.07;;
6017;SDS011;3037;51.068;13.780;2024-01-15T05:43:11;17.63;;;10.07;;
6017;SDS011;3037;51.068;13.780;2024-01-15T05:45:38;15.20;;;9.23;;
6017;SDS011;3037;51.068;13.780;2024-01-15T05:48:04;19.63;;;9.30;;
6017;SDS011;3037;51.068;13.780;2024-01-15T05:50:30;20.90;;;9.30;;
6017;SDS011;3037;51.068;13.780;2024-01-15T05:52:55;17.50;;;8.50;;
6017;SDS011;3037;51.068;13.780;2024-01-15T05:55:21;15.73;;;9.67;;
6017;SDS011;3037;51.068;13.780;2024-01-15T05:57:46;18.70;;;10.03;;
6017;SDS011;3037;51.068;13.780;2024-01-15T06:00:12;17.83;;;8.57;;
6017;SDS011;3037;51.068;13.780;2024-01-15T06:02:38;16.67;;;9.07;;
6017;SDS011;3037;51.068;13.780;2024-01-15T06:05:04;13.97;;;7.63;;
6017;SDS011;3037;51.068;13.780;2024-01-15T06:07:31;21.17;;;9.30;;
6017;SDS011;3037;51.068;13.780;2024-01-15T06:09:56;21.27;;;8.70;;
6017;SDS011;3037;51.068;13.780;2024-01-15T06:12:22;13.90;;;8.10;;
6017;SDS011;3037;51.068;13.780;2024-01-15T06:14:48;21.90;;;9.53;;
6017;SDS011;3037;51.068;13.780;2024-01-15T06:17:13;26.90;;;8.97;;
6017;SDS011;3037;51.068;13.780;2024-01-15T06:19:39;16.33;;;9.80;;
6017;SDS011;3037;51.068;13.780;2024-01-15T06:22:04;15.70;;;7.47;;
6017;SDS011;3037;51.068;13.780;2024-01-15T06:24:30;16.67;;;8.93;;
6017;SDS011;3037;51.068;13.780;2024-01-15T06:26:55;12.37;;;8.30;;
6017;SDS011;3037;51.068;13.780;2024-01-15T06:29:21;11.97;;;7.30;;
6017;SDS011;3037;51.068;13.780;2024-01-15T06:31:46;18.00;;;8.60;;
6017;SDS011;3037;51.068;13.780;2024-01-15T06:34:12;17.73;;;8.07;;
6017;SDS011;3037;51.068;13.780;2024-01-15T06:36:37;15.97;;;8.37;;
6017;SDS011;3037;51.068;13.780;2024-01-15T06:39:03;15.80;;;8.50;;
6017;SDS011;3037;51.068;13.780;2024-01-15T06:41:29;17.10;;;8.27;;
6017;SDS011;3037;51.068;13.780;2024-01-15T06:43:54;15.37;;;8.30;;
6017;SDS011;3037;51.068;13.780;2024-01-15T06:46:21;13.50;;;6.77;;
6017;SDS011;3037;51.068;13.780;2024-01-15T06:48:46;20.53;;;8.00;;
6017;SDS011;3037;51.068;13.780;2024-01-15T06:51:12;12.73;;;8.07;;
6017;SDS011;3037;51.068;13.780;2024-01-15T06:53:38;11.07;;;6.13;;
6017;SDS011;3037;51.068;13.780;2024-01-15T06:56:03;23.73;;;7.00;;
6017;SDS011;3037;51.068;13.780;2024-01-15T06:58:30;14.77;;;7.53;;
6017;SDS011;3037;51.068;13.780;2024-01-15T07:00:56;13.50;;;7.77;;
6017;SDS011;3037;51.068;13.780;2024-01-15T07:03:21;7.33;;;4.63;;
6017;SDS011;3037;51.068;13.780;2024-01-15T07:05:47;10.23;;;5.67;;
6017;SDS011;3037;51.068;13.780;2024-01-15T07:08:12;35.63;;;7.00;;
6017;SDS011;3037;51.068;13.780;2024-01-15T07:10:38;14.00;;;8.03;;
6017;SDS011;3037;51.068;13.780;2024-01-15T07:13:03;14.60;;;7.33;;
6017;SDS011;3037;51.068;13.780;2024-01-15T07:15:30;11.47;;;6.90;;
6017;SDS011;3037;51.068;13.780;2024-01-15T07:17:56;17.83;;;8.43;;
6017;SDS011;3037;51.068;13.780;2024-01-15T07:20:21;19.67;;;8.23;;
6017;SDS011;3037;51.068;13.780;2024-01-15T07:22:47;17.60;;;8.00;;
6017;SDS011;3037;51.068;13.780;2024-01-15T07:25:12;19.27;;;6.93;;
6017;SDS011;3037;51.068;13.780;2024-01-15T07:27:38;14.33;;;8.10;;
6017;SDS011;3037;51.068;13.780;2024-01-15T07:30:04;10.83;;;6.53;;
6017;SDS011;3037;51.068;13.780;2024-01-15T07:32:31;15.23;;;7.40;;
6017;SDS011;3037;51.068;13.780;2024-01-15T07:34:57;14.17;;;7.33;;
6017;SDS011;3037;51.068;13.780;2024-01-15T07:37:24;10.73;;;6.40;;
6017;SDS011;3037;51.068;13.780;2024-01-15T07:39:50;11.20;;;6.47;;
6017;SDS011;3037;51.068;13.780;2024-01-15T07:42:15;11.10;;;6.93;;
6017;SDS011;3037;51.068;13.780;2024-01-15T07:44:41;11.93;;;7.80;;
6017;SDS011;3037;51.068;13.780;2024-01-15T07:47:06;16.07;;;7.10;;
6017;SDS011;3037;51.068;13.780;2024-01-15T07:49:33;12.70;;;7.47;;
6017;SDS011;3037;51.068;13.780;2024-01-15T07:51:59;14.00;;;7.63;;
6017;SDS011;3037;51.068;13.780;2024-01-15T07:54:25;16.07;;;8.10;;
6017;SDS011;3037;51.068;13.780;2024-01-15T07:56:54;14.07;;;7.13;;
6017;SDS011;3037;51.068;13.780;2024-01-15T07:59:24;15.90;;;8.30;;
6017;SDS011;3037;51.068;13.780;2024-01-15T08:01:51;13.30;;;8.17;;
6017;SDS011;3037;51.068;13.780;2024-01-15T08:04:17;21.87;;;7.83;;
6017;SDS011;3037;51.068;13.780;2024-01-15T08:06:42;17.77;;;7.10;;
6017;SDS011;3037;51.068;13.780;2024-01-15T08:09:08;10.37;;;6.23;;
6017;SDS011;3037;51.068;13.780;2024-01-15T08:11:34;17.07;;;8.20;;
6017;SDS011;3037;51.068;13.780;2024-01-15T08:14:00;15.37;;;7.00;;
6017;SDS011;3037;51.068;13.780;2024-01-15T08:16:25;19.03;;;8.03;;
6017;SDS011;3037;51.068;13.780;2024-01-15T08:18:52;12.10;;;7.53;;
6017;SDS011;3037;51.068;13.780;2024-01-15T08:21:18;9.70;;;6.70;;
6017;SDS011;3037;51.068;13.780;2024-01-15T08:23:44;13.90;;;7.10;;
6017;SDS011;3037;51.068;13.780;2024-01-15T08:26:10;23.33;;;6.07;;
6017;SDS011;3037;51.068;13.780;2024-01-15T08:28:35;15.07;;;7.20;;
6017;SDS011;3037;51.068;13.780;2024-01-15T08:31:01;10.10;;;6.20;;
6017;SDS011;3037;51.068;13.780;2024-01-15T08:33:27;12.97;;;6.10;;
6017;SDS011;3037;51.068;13.780;2024-01-15T08:35:53;15.30;;;7.00;;
6017;SDS011;3037;51.068;13.780;2024-01-15T08:38:19;9.10;;;5.97;;
6017;SDS011;3037;51.068;13.780;2024-01-15T08:40:44;10.10;;;5.60;;
6017;SDS011;3037;51.068;13.780;2024-01-15T08:43:10;13.40;;;7.30;;
6017;SDS011;3037;51.068;13.780;2024-01-15T08:45:35;13.70;;;6.20;;
6017;SDS011;3037;51.068;13.780;2024-01-15T08:48:01;13.73;;;6.93;;
6017;SDS011;3037;51.068;13.780;2024-01-15T08:50:27;12.43;;;7.40;;
6017;SDS011;3037;51.068;13.780;2024-01-15T08:52:52;8.00;;;5.40;;
6017;SDS011;3037;51.068;13.780;2024-01-15T08:55:18;16.40;;;7.63;;
6017;SDS011;3037;51.068;13.780;2024-01-15T08:57:43;15.83;;;7.33;;
6017;SDS011;3037;51.068;13.780;2024-01-15T09:00:09;13.53;;;6.50;;
6017;SDS011;3037;51.068;13.780;2024-01-15T09:02:35;8.97;;;6.17;;
6017;SDS011;3037;51.068;13.780;2024-01-15T09:05:01;14.57;;;7.73;;
6017;SDS011;3037;51.068;13.780;2024-01-15T09:07:26;10.60;;;5.33;;
6017;SDS011;3037;51.068;13.780;2024-01-15T09:09:52;9.00;;;5.90;;
6017;SDS011;3037;51.068;13.780;2024-01-15T09:12:18;20.93;;;5.23;;
6017;SDS011;3037;51.068;13.780;2024-01-15T09:14:46;6.53;;;5.53;;
6017;SDS011;3037;51.068;13.780;2024-01-15T09:17:11;11.03;;;5.37;;
6017;SDS011;3037;51.068;13.780;2024-01-15T09:19:37;13.23;;;6.30;;
6017;SDS011;3037;51.068;13.780;2024-01-15T09:22:04;12.13;;;5.73;;
6017;SDS011;3037;51.068;13.780;2024-01-15T09:24:30;7.20;;;6.23;;
6017;SDS011;3037;51.068;13.780;2024-01-15T09:26:56;6.27;;;3.80;;
6017;SDS011;3037;51.068;13.780;2024-01-15T09:29:21;10.63;;;6.60;;
6017;SDS011;3037;51.068;13.780;2024-01-15T09:31:48;8.00;;;5.77;;
6017;SDS011;3037;51.068;13.780;2024-01-15T09:34:15;8.90;;;5.30;;
6017;SDS011;3037;51.068;13.780;2024-01-15T09:36:41;9.10;;;6.20;;
6017;SDS011;3037;51.068;13.780;2024-01-15T09:39:07;15.83;;;5.47;;
6017;SDS011;3037;51.068;13.780;2024-01-15T09:41:37;5.37;;;4.53;;
6017;SDS011;3037;51.068;13.780;2024-01-15T09:44:03;10.00;;;5.13;;
6017;SDS011;3037;51.068;13.780;2024-01-15T09:46:29;7.60;;;4.80;;
6017;SDS011;3037;51.068;13.780;2024-01-15T09:48:57;10.07;;;4.37;;
6017;SDS011;3037;51.068;13.780;2024-01-15T09:51:23;7.60;;;5.10;;
6017;SDS011;3037;51.068;13.780;2024-01-15T09:53:49;12.50;;;5.40;;
6017;SDS011;3037;51.068;13.780;2024-01-15T09:56:15;5.00;;;4.37;;
6017;SDS011;3037;51.068;13.780;2024-01-15T09:58:41;11.63;;;5.47;;
6017;SDS011;3037;51.068;13.780;2024-01-15T10:01:07;6.57;;;3.73;;
6017;SDS011;3037;51.068;13.780;2024-01-15T10:03:34;9.83;;;4.53;;
6017;SDS011;3037;51.068;13.780;2024-01-15T10:05:59;9.40;;;5.83;;
6017;SDS011;3037;51.068;13.780;2024-01-15T10:08:27;6.50;;;4.53;;
6017;SDS011;3037;51.068;13.780;2024-01-15T10:10:53;9.23;;;5.20;;
6017;SDS011;3037;51.068;13.780;2024-01-15T10:13:18;10.90;;;4.37;;
6017;SDS011;3037;51.068;13.780;2024-01-15T10:15:47;9.73;;;5.70;;
6017;SDS011;3037;51.068;13.780;2024-01-15T10:18:13;8.87;;;4.93;;
6017;SDS011;3037;51.068;13.780;2024-01-15T10:20:39;6.30;;;4.63;;
6017;SDS011;3037;51.068;13.780;2024-01-15T10:23:05;12.17;;;5.90;;
6017;SDS011;3037;51.068;13.780;2024-01-15T10:25:30;8.13;;;5.13;;
6017;SDS011;3037;51.068;13.780;2024-01-15T10:27:59;13.27;;;5.63;;
6017;SDS011;3037;51.068;13.780;2024-01-15T10:30:26;12.03;;;5.23;;
6017;SDS011;3037;51.068;13.780;2024-01-15T10:32:58;11.57;;;6.20;;
6017;SDS011;3037;51.068;13.780;2024-01-15T10:35:26;5.37;;;4.03;;
6017;SDS011;3037;51.068;13.780;2024-01-15T10:37:55;8.17;;;5.10;;
6017;SDS011;3037;51.068;13.780;2024-01-15T10:40:21;11.13;;;5.07;;
6017;SDS011;3037;51.068;13.780;2024-01-15T10:42:46;9.73;;;5.27;;
6017;SDS011;3037;51.068;13.780;2024-01-15T10:45:12;7.20;;;5.10;;
6017;SDS011;3037;51.068;13.780;2024-01-15T10:47:42;9.67;;;5.83;;
6017;SDS011;3037;51.068;13.780;2024-01-15T10:50:08;10.70;;;5.30;;
6017;SDS011;3037;51.068;13.780;2024-01-15T10:52:38;9.77;;;5.33;;
6017;SDS011;3037;51.068;13.780;2024-01-15T10:55:05;8.50;;;4.10;;
6017;SDS011;3037;51.068;13.780;2024-01-15T10:57:34;8.73;;;5.40;;
6017;SDS011;3037;51.068;13.780;2024-01-15T11:00:03;5.93;;;3.93;;
6017;SDS011;3037;51.068;13.780;2024-01-15T11:02:31;8.30;;;5.07;;
6017;SDS011;3037;51.068;13.780;2024-01-15T11:04:59;8.80;;;5.40;;
6017;SDS011;3037;51.068;13.780;2024-01-15T11:07:25;7.67;;;5.10;;
6017;SDS011;3037;51.068;13.780;2024-01-15T11:09:51;12.40;;;5.47;;
6017;SDS011;3037;51.068;13.780;2024-01-15T11:12:17;6.10;;;5.03;;
6017;SDS011;3037;51.068;13.780;2024-01-15T11:14:46;7.60;;;5.67;;
6017;SDS011;3037;51.068;13.780;2024-01-15T11:17:13;7.20;;;4.60;;
6017;SDS011;3037;51.068;13.780;2024-01-15T11:19:46;5.00;;;4.13;;
6017;SDS011;3037;51.068;13.780;2024-01-15T11:24:55;16.33;;;5.17;;
6017;SDS011;3037;51.068;13.780;2024-01-15T11:27:40;5.60;;;4.90;;
6017;SDS011;3037;51.068;13.780;2024-01-15T11:30:20;10.00;;;5.43;;
6017;SDS011;3037;51.068;13.780;2024-01-15T11:32:50;15.47;;;5.60;;
6017;SDS011;3037;51.068;13.780;2024-01-15T11:35:15;8.67;;;5.07;;
6017;SDS011;3037;51.068;13.780;2024-01-15T11:40:19;13.17;;;5.80;;
6017;SDS011;3037;51.068;13.780;2024-01-15T11:42:46;10.33;;;6.00;;
6017;SDS011;3037;51.068;13.780;2024-01-15T11:45:13;8.73;;;5.53;;
6017;SDS011;3037;51.068;13.780;2024-01-15T11:47:58;13.13;;;6.30;;
6017;SDS011;3037;51.068;13.780;2024-01-15T11:50:30;6.33;;;5.13;;
6017;SDS011;3037;51.068;13.780;2024-01-15T11:53:00;10.03;;;5.50;;
6017;SDS011;3037;51.068;13.780;2024-01-15T11:55:27;8.93;;;5.27;;
6017;SDS011;3037;51.068;13.780;2024-01-15T11:58:00;13.80;;;5.97;;
6017;SDS011;3037;51.068;13.780;2024-01-15T12:00:26;7.50;;;5.30;;
6017;SDS011;3037;51.068;13.780;2024-01-15T12:02:53;7.23;;;5.40;;
6017;SDS011;3037;51.068;13.780;2024-01-15T12:05:18;7.03;;;5.50;;
6017;SDS011;3037;51.068;13.780;2024-01-15T12:07:45;14.83;;;4.93;;
6017;SDS011;3037;51.068;13.780;2024-01-15T12:10:15;10.00;;;6.10;;
6017;SDS011;3037;51.068;13.780;2024-01-15T12:13:05;8.30;;;5.57;;
6017;SDS011;3037;51.068;13.780;2024-01-15T12:15:41;5.13;;;4.53;;
6017;SDS011;3037;51.068;13.780;2024-01-15T12:18:08;6.43;;;5.10;;
6017;SDS011;3037;51.068;13.780;2024-01-15T12:20:34;11.53;;;5.07;;
6017;SDS011;3037;51.068;13.780;2024-01-15T12:23:00;14.73;;;6.43;;
6017;SDS011;3037;51.068;13.780;2024-01-15T12:25:29;8.83;;;5.20;;
6017;SDS011;3037;51.068;13.780;2024-01-15T12:27:56;13.13;;;5.40;;
6017;SDS011;3037;51.068;13.780;2024-01-15T12:30:22;5.07;;;4.57;;
6017;SDS011;3037;51.068;13.780;2024-01-15T12:32:47;10.47;;;5.37;;
6017;SDS011;3037;51.068;13.780;2024-01-15T12:35:13;16.50;;;5.30;;
6017;SDS011;3037;51.068;13.780;2024-01-15T12:37:40;8.23;;;5.20;;
6017;SDS011;3037;51.068;13.780;2024-01-15T12:40:07;11.37;;;5.13;;
6017;SDS011;3037;51.068;13.780;2024-01-15T12:42:34;9.00;;;5.57;;
6017;SDS011;3037;51.068;13.780;2024-01-15T12:45:07;5.30;;;4.50;;
6017;SDS011;3037;51.068;13.780;2024-01-15T12:47:33;7.43;;;5.00;;
6017;SDS011;3037;51.068;13.780;2024-01-15T12:49:59;8.63;;;6.20;;
6017;SDS011;3037;51.068;13.780;2024-01-15T12:52:28;14.83;;;6.93;;
6017;SDS011;3037;51.068;13.780;2024-01-15T12:54:54;19.80;;;6.00;;
6017;SDS011;3037;51.068;13.780;2024-01-15T12:57:19;6.30;;;5.10;;
6017;SDS011;3037;51.068;13.780;2024-01-15T12:59:45;11.80;;;6.30;;
6017;SDS011;3037;51.068;13.780;2024-01-15T13:02:11;7.33;;;5.00;;
6017;SDS011;3037;51.068;13.780;2024-01-15T13:04:38;9.30;;;5.20;;
6017;SDS011;3037;51.068;13.780;2024-01-15T13:07:03;6.97;;;5.93;;
6017;SDS011;3037;51.068;13.780;2024-01-15T13:09:30;8.20;;;5.23;;
6017;SDS011;3037;51.068;13.780;2024-01-15T13:11:55;8.77;;;5.40;;
6017;SDS011;3037;51.068;13.780;2024-01-15T13:14:21;5.70;;;5.17;;
6017;SDS011;3037;51.068;13.780;2024-01-15T13:16:46;10.10;;;5.97;;
6017;SDS011;3037;51.068;13.780;2024-01-15T13:19:12;6.00;;;5.30;;
6017;SDS011;3037;51.068;13.780;2024-01-15T13:21:38;8.53;;;5.37;;
6017;SDS011;3037;51.068;13.780;2024-01-15T13:24:07;11.43;;;6.10;;
6017;SDS011;3037;51.068;13.780;2024-01-15T13:26:33;16.00;;;9.27;;
6017;SDS011;3037;51.068;13.780;2024-01-15T13:28:59;6.80;;;3.60;;
6017;SDS011;3037;51.068;13.780;2024-01-15T13:31:26;9.57;;;6.00;;
6017;SDS011;3037;51.068;13.780;2024-01-15T13:33:52;19.03;;;5.60;;
6017;SDS011;3037;51.068;13.780;2024-01-15T13:36:18;8.50;;;5.97;;
6017;SDS011;3037;51.068;13.780;2024-01-15T13:38:43;10.17;;;5.07;;
6017;SDS011;3037;51.068;13.780;2024-01-15T13:41:09;10.93;;;6.03;;
6017;SDS011;3037;51.068;13.780;2024-01-15T13:43:34;7.37;;;5.10;;
6017;SDS011;3037;51.068;13.780;2024-01-15T13:46:00;8.37;;;5.40;;
6017;SDS011;3037;51.068;13.780;2024-01-15T13:48:25;14.00;;;6.20;;
6017;SDS011;3037;51.068;13.780;2024-01-15T13:50:52;10.40;;;6.17;;
6017;SDS011;3037;51.068;13.780;2024-01-15T13:53:18;11.63;;;5.87;;
6017;SDS011;3037;51.068;13.780;2024-01-15T13:55:44;6.93;;;5.50;;
6017;SDS011;3037;51.068;13.780;2024-01-15T13:58:09;10.33;;;5.50;;
6017;SDS011;3037;51.068;13.780;2024-01-15T14:00:35;9.77;;;6.40;;
6017;SDS011;3037;51.068;13.780;2024-01-15T14:03:01;6.30;;;5.20;;
6017;SDS011;3037;51.068;13.780;2024-01-15T14:05:27;12.90;;;6.30;;
6017;SDS011;3037;51.068;13.780;2024-01-15T14:07:52;8.27;;;6.50;;
6017;SDS011;3037;51.068;13.780;2024-01-15T14:10:18;12.40;;;6.37;;
6017;SDS011;3037;51.068;13.780;2024-01-15T14:12:43;14.40;;;5.97;;
6017;SDS011;3037;51.068;13.780;2024-01-15T14:15:09;11.93;;;5.53;;
6017;SDS011;3037;51.068;13.780;2024-01-15T14:17:34;10.67;;;6.57;;
6017;SDS011;3037;51.068;13.780;2024-01-15T14:20:00;10.20;;;6.80;;
6017;SDS011;3037;51.068;13.780;2024-01-15T14:22:25;9.87;;;5.90;;
6017;SDS011;3037;51.068;13.780;2024-01-15T14:24:51;12.53;;;6.07;;
6017;SDS011;3037;51.068;13.780;2024-01-15T14:27:17;10.60;;;5.93;;
6017;SDS011;3037;51.068;13.780;2024-01-15T14:29:43;9.60;;;5.70;;
6017;SDS011;3037;51.068;13.780;2024-01-15T14:32:08;7.73;;;5.87;;
6017;SDS011;3037;51.068;13.780;2024-01-15T14:34:34;8.57;;;6.10;;
6017;SDS011;3037;51.068;13.780;2024-01-15T14:37:02;11.60;;;6.20;;
6017;SDS011;3037;51.068;13.780;2024-01-15T14:39:27;14.53;;;6.33;;
6017;SDS011;3037;51.068;13.780;2024-01-15T14:41:53;8.90;;;6.60;;
6017;SDS011;3037;51.068;13.780;2024-01-15T14:44:18;11.60;;;7.07;;
6017;SDS011;3037;51.068;13.780;2024-01-15T14:46:44;8.20;;;5.60;;
6017;SDS011;3037;51.068;13.780;2024-01-15T14:49:10;12.50;;;7.27;;